createdAt,value
2023-05-06T00:00:40.182Z,51.55
2023-05-06T00:03:19.661Z,51.53
2023-05-06T00:05:51.838Z,51.33
2023-05-06T00:08:24.269Z,51.39
2023-05-06T00:10:57.026Z,51.20
2023-05-06T00:13:30.045Z,51.09
2023-05-06T00:16:02.511Z,51.27
2023-05-06T00:18:34.975Z,51.38
2023-05-06T00:21:07.466Z,51.65
2023-05-06T00:23:39.713Z,51.69
2023-05-06T00:26:12.443Z,51.53
2023-05-06T00:28:45.211Z,51.47
2023-05-06T00:31:17.783Z,51.85
2023-05-06T00:33:50.385Z,51.27
2023-05-06T00:36:22.781Z,51.25
2023-05-06T00:38:54.965Z,51.32
2023-05-06T00:41:31.665Z,51.20
2023-05-06T00:44:06.953Z,51.15
2023-05-06T00:46:39.395Z,51.31
2023-05-06T00:49:13.150Z,51.34
2023-05-06T00:51:45.664Z,51.30
2023-05-06T00:54:19.862Z,51.24
2023-05-06T00:56:52.127Z,51.40
2023-05-06T00:59:24.674Z,51.33
2023-05-06T01:01:58.275Z,51.32
2023-05-06T01:04:31.365Z,50.92
2023-05-06T01:07:14.470Z,50.90
2023-05-06T01:09:55.413Z,51.41
2023-05-06T01:12:33.634Z,51.62
2023-05-06T01:15:12.855Z,51.65
2023-05-06T01:17:50.215Z,51.31
2023-05-06T01:20:25.307Z,50.93
2023-05-06T01:22:58.200Z,51.69
2023-05-06T01:25:32.336Z,51.74
2023-05-06T01:28:04.668Z,51.88
2023-05-06T01:30:54.810Z,51.73
2023-05-06T01:33:38.273Z,51.56
2023-05-06T01:36:17.703Z,51.39
2023-05-06T01:38:56.124Z,51.44
2023-05-06T01:41:29.502Z,51.73
2023-05-06T01:44:03.311Z,52.16
2023-05-06T01:46:36.725Z,52.21
2023-05-06T01:49:11.617Z,52.25
2023-05-06T01:51:48.305Z,52.00
2023-05-06T01:54:20.706Z,51.96
2023-05-06T01:56:53.993Z,51.95
2023-05-06T01:59:26.810Z,52.70
2023-05-06T02:02:00.331Z,52.98
2023-05-06T02:04:33.090Z,52.98
2023-05-06T02:07:05.701Z,52.96
2023-05-06T02:09:38.128Z,53.26
2023-05-06T02:12:10.428Z,52.88
2023-05-06T02:14:43.086Z,53.44
2023-05-06T02:17:15.745Z,53.42
2023-05-06T02:19:48.304Z,53.18
2023-05-06T02:22:20.387Z,53.15
2023-05-06T02:24:52.847Z,53.33
2023-05-06T02:27:25.240Z,53.26
2023-05-06T02:29:59.017Z,53.09
2023-05-06T02:32:31.898Z,52.71
2023-05-06T02:35:04.891Z,53.30
2023-05-06T02:37:37.141Z,53.02
2023-05-06T02:40:11.025Z,53.11
2023-05-06T02:42:44.053Z,53.51
2023-05-06T02:45:16.967Z,53.27
2023-05-06T02:47:49.176Z,52.79
2023-05-06T02:50:21.476Z,52.84
2023-05-06T02:52:53.709Z,52.98
2023-05-06T02:55:26.000Z,53.03
2023-05-06T02:57:59.086Z,53.26
2023-05-06T03:00:32.238Z,52.99
2023-05-06T03:03:05.119Z,53.42
2023-05-06T03:05:37.606Z,53.51
2023-05-06T03:08:10.299Z,53.26
2023-05-06T03:10:43.065Z,52.90
2023-05-06T03:13:15.226Z,53.26
2023-05-06T03:15:52.165Z,53.49
2023-05-06T03:18:24.960Z,53.40
2023-05-06T03:20:57.724Z,53.48
2023-05-06T03:23:32.110Z,54.27
2023-05-06T03:26:05.696Z,54.48
2023-05-06T03:28:38.544Z,54.50
2023-05-06T03:31:11.442Z,54.87
2023-05-06T03:33:44.826Z,55.60
2023-05-06T03:36:18.010Z,56.56
2023-05-06T03:38:51.776Z,56.12
2023-05-06T03:41:24.660Z,56.22
2023-05-06T03:43:57.297Z,56.64
2023-05-06T03:46:32.719Z,56.77
2023-05-06T03:49:05.992Z,57.77
2023-05-06T03:51:38.749Z,57.61
2023-05-06T03:54:11.464Z,57.87
2023-05-06T03:56:46.572Z,58.10
2023-05-06T03:59:21.167Z,59.03
2023-05-06T04:01:53.781Z,58.71
2023-05-06T04:04:27.597Z,59.27
2023-05-06T04:07:04.470Z,58.66
2023-05-06T04:09:44.251Z,58.76
2023-05-06T04:12:16.902Z,58.78
2023-05-06T04:14:51.362Z,58.61
2023-05-06T04:17:24.079Z,58.88
2023-05-06T04:19:57.687Z,58.51
2023-05-06T04:22:30.654Z,58.38
2023-05-06T04:25:06.813Z,58.12
2023-05-06T04:27:40.882Z,58.07
2023-05-06T04:30:15.523Z,58.78
2023-05-06T04:32:50.077Z,59.07
2023-05-06T04:35:23.707Z,58.80
2023-05-06T04:38:00.504Z,58.59
2023-05-06T04:40:36.663Z,58.72
2023-05-06T04:43:11.939Z,58.87
2023-05-06T04:45:51.428Z,59.19
2023-05-06T04:48:29.110Z,59.80
2023-05-06T04:51:04.392Z,59.48
2023-05-06T04:53:36.919Z,59.77
2023-05-06T04:56:10.187Z,59.40
2023-05-06T04:58:42.956Z,59.52
2023-05-06T05:01:16.874Z,59.77
2023-05-06T05:03:50.126Z,59.47
2023-05-06T05:06:22.976Z,59.85
2023-05-06T05:08:55.927Z,59.41
2023-05-06T05:11:29.253Z,59.75
2023-05-06T05:14:04.623Z,60.16
2023-05-06T05:16:37.823Z,60.44
2023-05-06T05:19:13.908Z,60.89
2023-05-06T05:21:47.240Z,60.80
2023-05-06T05:24:19.905Z,60.99
2023-05-06T05:26:52.175Z,61.05
2023-05-06T05:29:24.600Z,60.70
2023-05-06T05:31:59.954Z,61.31
2023-05-06T05:34:34.095Z,61.62
2023-05-06T05:37:06.773Z,62.12
2023-05-06T05:39:39.640Z,61.98
2023-05-06T05:42:12.118Z,61.96
2023-05-06T05:44:44.779Z,62.20
2023-05-06T05:47:17.804Z,62.20
2023-05-06T05:49:50.831Z,63.02
2023-05-06T05:52:23.962Z,63.47
2023-05-06T05:54:56.768Z,63.29
2023-05-06T05:57:30.943Z,63.43
2023-05-06T06:00:03.500Z,64.10
2023-05-06T06:02:37.680Z,63.83
2023-05-06T06:05:11.533Z,63.54
2023-05-06T06:07:44.265Z,63.63
2023-05-06T06:10:16.814Z,63.83
2023-05-06T06:12:49.175Z,63.81
2023-05-06T06:15:24.072Z,63.55
2023-05-06T06:17:57.899Z,63.73
2023-05-06T06:20:31.744Z,63.94
2023-05-06T06:23:04.396Z,63.72
2023-05-06T06:25:36.740Z,64.17
2023-05-06T06:28:09.120Z,64.36
2023-05-06T06:30:42.180Z,63.92
2023-05-06T06:33:14.408Z,63.93
2023-05-06T06:35:46.577Z,64.42
2023-05-06T06:38:18.831Z,64.73
2023-05-06T06:40:51.255Z,65.03
2023-05-06T06:43:24.733Z,64.78
2023-05-06T06:46:07.533Z,65.25
2023-05-06T06:48:39.877Z,65.38
2023-05-06T06:51:12.196Z,65.08
2023-05-06T06:53:44.666Z,65.92
2023-05-06T06:56:17.147Z,66.05
2023-05-06T06:58:50.742Z,65.75
2023-05-06T07:01:24.377Z,66.56
2023-05-06T07:03:56.652Z,66.55
2023-05-06T07:06:28.940Z,66.35
2023-05-06T07:09:01.197Z,66.74
2023-05-06T07:11:33.717Z,66.66
2023-05-06T07:14:06.019Z,66.57
2023-05-06T07:16:38.188Z,66.86
2023-05-06T07:19:10.370Z,66.74
2023-05-06T07:21:42.633Z,66.52
2023-05-06T07:24:15.270Z,66.81
2023-05-06T07:26:48.231Z,67.13
2023-05-06T07:29:20.703Z,66.91
2023-05-06T07:31:52.935Z,66.44
2023-05-06T07:34:25.089Z,66.48
2023-05-06T07:36:57.390Z,67.66
2023-05-06T07:39:29.650Z,67.44
2023-05-06T07:42:02.724Z,67.38
2023-05-06T07:44:36.390Z,67.42
2023-05-06T07:47:08.602Z,67.89
2023-05-06T07:49:40.828Z,67.83
2023-05-06T07:52:13.424Z,68.20
2023-05-06T07:54:45.583Z,67.84
2023-05-06T07:57:18.371Z,67.70
2023-05-06T07:59:53.000Z,67.88
2023-05-06T08:02:23.795Z,68.02
2023-05-06T08:04:56.262Z,67.56
2023-05-06T08:07:28.563Z,67.43
2023-05-06T08:10:01.018Z,67.62
2023-05-06T08:12:33.657Z,67.87
2023-05-06T08:15:07.108Z,68.00
2023-05-06T08:17:39.577Z,68.18
2023-05-06T08:20:13.385Z,68.61
2023-05-06T08:22:45.675Z,68.22
2023-05-06T08:25:17.982Z,68.24
2023-05-06T08:27:50.244Z,69.02
2023-05-06T08:30:22.378Z,69.26
2023-05-06T08:32:55.063Z,69.26
2023-05-06T08:35:27.237Z,68.98
2023-05-06T08:37:59.416Z,68.65
2023-05-06T08:40:33.970Z,69.13
2023-05-06T08:43:08.203Z,68.79
2023-05-06T08:45:41.396Z,69.34
2023-05-06T08:48:13.818Z,69.59
2023-05-06T08:50:46.483Z,69.93
2023-05-06T08:53:19.298Z,70.02
2023-05-06T08:55:53.809Z,69.81
2023-05-06T08:58:27.794Z,69.66
2023-05-06T09:01:00.945Z,69.68
2023-05-06T09:03:33.340Z,69.64
2023-05-06T09:06:06.039Z,69.18
2023-05-06T09:08:38.608Z,69.44
2023-05-06T09:11:25.046Z,69.46
2023-05-06T09:14:11.298Z,69.20
2023-05-06T09:16:45.826Z,69.95
2023-05-06T09:19:20.181Z,69.51
2023-05-06T09:21:53.249Z,69.53
2023-05-06T09:24:26.603Z,69.50
2023-05-06T09:26:59.299Z,69.91
2023-05-06T09:29:31.696Z,70.28
2023-05-06T09:32:09.288Z,70.08
2023-05-06T09:34:46.463Z,70.02
2023-05-06T09:37:20.523Z,69.71
2023-05-06T09:39:54.598Z,69.52
2023-05-06T09:42:29.018Z,69.54
2023-05-06T09:45:02.852Z,69.60
2023-05-06T09:47:38.199Z,69.83
2023-05-06T09:50:14.791Z,69.87
2023-05-06T09:52:49.299Z,69.29
2023-05-06T09:55:23.618Z,69.27
2023-05-06T09:57:56.120Z,69.18
2023-05-06T10:00:30.085Z,69.40
2023-05-06T10:03:03.788Z,70.22
2023-05-06T10:05:36.679Z,69.99
2023-05-06T10:08:10.572Z,69.86
2023-05-06T10:10:45.227Z,69.86
2023-05-06T10:13:18.226Z,69.48
2023-05-06T10:15:52.035Z,70.02
2023-05-06T10:18:27.783Z,69.81
2023-05-06T10:21:02.809Z,70.04
2023-05-06T10:23:44.461Z,69.89
2023-05-06T10:26:20.935Z,70.01
2023-05-06T10:28:55.011Z,70.73
2023-05-06T10:31:28.316Z,70.77
2023-05-06T10:34:06.221Z,70.30
2023-05-06T10:36:40.631Z,70.19
2023-05-06T10:39:14.346Z,70.12
2023-05-06T10:41:46.879Z,70.16
2023-05-06T10:44:19.666Z,69.96
2023-05-06T10:47:09.472Z,69.61
2023-05-06T10:49:41.769Z,69.47
2023-05-06T10:52:17.064Z,69.15
2023-05-06T10:54:52.937Z,69.57
2023-05-06T10:57:27.399Z,70.35
2023-05-06T10:59:59.996Z,70.56
2023-05-06T11:02:33.024Z,70.46
2023-05-06T11:05:07.629Z,70.38
2023-05-06T11:07:39.795Z,70.62
2023-05-06T11:10:13.508Z,70.41
2023-05-06T11:12:50.296Z,70.36
2023-05-06T11:15:40.506Z,70.33
2023-05-06T11:18:45.830Z,70.16
2023-05-06T11:21:39.184Z,70.10
2023-05-06T11:24:15.706Z,70.85
2023-05-06T11:26:48.702Z,70.71
2023-05-06T11:29:21.477Z,71.32
2023-05-06T11:31:54.828Z,71.40
2023-05-06T11:34:30.225Z,71.25
2023-05-06T11:37:04.210Z,71.64
2023-05-06T11:39:40.706Z,71.26
2023-05-06T11:42:13.729Z,71.29
2023-05-06T11:44:45.988Z,71.83
2023-05-06T11:47:18.216Z,71.45
2023-05-06T11:49:54.836Z,71.22
2023-05-06T11:52:27.078Z,71.57
2023-05-06T11:54:59.346Z,71.78
2023-05-06T11:57:32.727Z,71.86
2023-05-06T12:00:05.560Z,71.35
2023-05-06T12:02:44.741Z,71.31
2023-05-06T12:05:17.354Z,71.40
2023-05-06T12:07:49.804Z,70.73
2023-05-06T12:10:22.575Z,70.95
2023-05-06T12:12:55.450Z,71.11
2023-05-06T12:15:28.030Z,71.62
2023-05-06T12:18:00.736Z,72.29
2023-05-06T12:20:33.222Z,72.00
2023-05-06T12:23:12.602Z,71.97
2023-05-06T12:25:45.840Z,71.85
2023-05-06T12:28:19.141Z,71.60
2023-05-06T12:30:51.502Z,71.83
2023-05-06T12:33:24.308Z,71.96
2023-05-06T12:36:07.321Z,72.06
2023-05-06T12:38:39.752Z,71.97
2023-05-06T12:41:11.980Z,71.89
2023-05-06T12:43:44.330Z,72.00
2023-05-06T12:46:18.415Z,72.45
2023-05-06T12:49:01.471Z,72.92
2023-05-06T12:51:34.203Z,72.90
2023-05-06T12:54:26.897Z,73.09
2023-05-06T12:56:59.197Z,73.37
2023-05-06T12:59:31.740Z,73.17
2023-05-06T13:02:04.338Z,73.15
2023-05-06T13:04:36.313Z,73.38
2023-05-06T13:07:08.632Z,72.71
2023-05-06T13:09:40.997Z,72.79
2023-05-06T13:12:13.508Z,72.26
2023-05-06T13:14:46.001Z,72.97
2023-05-06T13:17:18.286Z,72.89
2023-05-06T13:19:51.248Z,72.47
2023-05-06T13:22:24.378Z,72.56
2023-05-06T13:24:56.777Z,73.07
2023-05-06T13:27:32.273Z,72.71
2023-05-06T13:30:05.033Z,73.05
2023-05-06T13:32:37.450Z,73.72
2023-05-06T13:35:11.151Z,74.05
2023-05-06T13:37:43.607Z,74.14
2023-05-06T13:40:16.774Z,73.94
2023-05-06T13:42:49.106Z,74.18
2023-05-06T13:45:21.363Z,74.65
2023-05-06T13:47:54.313Z,74.39
2023-05-06T13:50:26.732Z,73.32
2023-05-06T13:52:59.815Z,73.58
2023-05-06T13:55:32.155Z,73.64
2023-05-06T13:58:05.472Z,73.66
2023-05-06T14:00:38.431Z,73.53
2023-05-06T14:03:10.892Z,73.15
2023-05-06T14:05:43.295Z,73.87
2023-05-06T14:08:15.430Z,74.31
2023-05-06T14:10:47.958Z,74.97
2023-05-06T14:13:20.538Z,74.94
2023-05-06T14:15:53.107Z,75.03
2023-05-06T14:18:26.611Z,75.66
2023-05-06T14:20:59.516Z,76.21
2023-05-06T14:23:32.563Z,75.76
2023-05-06T14:26:05.598Z,75.71
2023-05-06T14:28:37.924Z,76.44
2023-05-06T14:31:10.533Z,76.12
2023-05-06T14:33:42.691Z,75.69
2023-05-06T14:36:20.905Z,76.01
2023-05-06T14:38:53.223Z,75.60
2023-05-06T14:41:25.893Z,75.90
2023-05-06T14:44:00.848Z,75.29
2023-05-06T14:46:33.334Z,75.14
2023-05-06T14:49:05.796Z,74.86
2023-05-06T14:51:39.436Z,74.40
2023-05-06T14:54:11.993Z,74.22
2023-05-06T14:56:47.001Z,74.23
2023-05-06T14:59:20.940Z,75.03
2023-05-06T15:01:53.730Z,75.66
2023-05-06T15:04:25.933Z,74.91
2023-05-06T15:06:58.294Z,74.79
2023-05-06T15:09:30.935Z,74.72
2023-05-06T15:12:03.409Z,74.77
2023-05-06T15:14:35.837Z,74.31
2023-05-06T15:17:08.369Z,74.11
2023-05-06T15:19:40.578Z,73.98
2023-05-06T15:22:13.054Z,74.33
2023-05-06T15:24:46.577Z,74.60
2023-05-06T15:27:18.893Z,74.85
2023-05-06T15:29:51.091Z,73.90
2023-05-06T15:32:23.640Z,73.95
2023-05-06T15:34:55.758Z,73.89
2023-05-06T15:37:28.167Z,73.84
2023-05-06T15:40:00.554Z,73.85
2023-05-06T15:42:33.778Z,73.52
2023-05-06T15:45:07.410Z,73.10
2023-05-06T15:47:39.609Z,73.68
2023-05-06T15:50:21.310Z,73.41
2023-05-06T15:53:05.094Z,73.89
2023-05-06T15:55:45.568Z,73.97
2023-05-06T15:58:25.429Z,74.15
2023-05-06T16:00:57.810Z,74.60
2023-05-06T16:03:30.738Z,75.01
2023-05-06T16:06:03.154Z,74.59
2023-05-06T16:08:35.424Z,74.93
2023-05-06T16:11:07.733Z,75.64
2023-05-06T16:13:40.378Z,75.21
2023-05-06T16:16:12.710Z,74.72
2023-05-06T16:18:44.921Z,74.99
2023-05-06T16:21:17.316Z,74.76
2023-05-06T16:23:49.979Z,74.50
2023-05-06T16:26:22.720Z,74.62
2023-05-06T16:28:55.207Z,74.43
2023-05-06T16:31:27.722Z,74.12
2023-05-06T16:34:00.364Z,73.79
2023-05-06T16:36:32.436Z,73.53
2023-05-06T16:39:06.271Z,73.66
2023-05-06T16:41:38.564Z,74.02
2023-05-06T16:44:10.935Z,73.61
2023-05-06T16:46:43.317Z,73.03
2023-05-06T16:49:15.744Z,73.53
2023-05-06T16:51:47.924Z,73.72
2023-05-06T16:54:20.181Z,73.31
2023-05-06T16:56:52.982Z,73.28
2023-05-06T16:59:25.969Z,73.47
2023-05-06T17:01:58.342Z,73.18
2023-05-06T17:04:30.707Z,72.83
2023-05-06T17:07:04.133Z,73.04
2023-05-06T17:09:36.224Z,73.51
2023-05-06T17:12:08.989Z,73.62
2023-05-06T17:14:42.869Z,73.00
2023-05-06T17:17:15.175Z,72.64
2023-05-06T17:19:47.337Z,73.09
2023-05-06T17:22:20.691Z,73.02
2023-05-06T17:24:53.500Z,73.21
2023-05-06T17:27:26.267Z,73.22
2023-05-06T17:29:58.514Z,73.68
2023-05-06T17:32:31.292Z,73.13
2023-05-06T17:35:03.784Z,72.91
2023-05-06T17:37:36.215Z,73.30
2023-05-06T17:40:10.541Z,73.82
2023-05-06T17:42:42.948Z,73.80
2023-05-06T17:45:15.825Z,73.68
2023-05-06T17:47:48.077Z,74.09
2023-05-06T17:50:20.836Z,74.11
2023-05-06T17:52:54.552Z,73.15
2023-05-06T17:55:27.273Z,73.08
2023-05-06T17:57:59.987Z,73.61
2023-05-06T18:00:32.363Z,73.79
2023-05-06T18:03:04.827Z,73.57
2023-05-06T18:05:37.162Z,73.63
2023-05-06T18:08:09.634Z,73.98
2023-05-06T18:10:42.014Z,73.59
2023-05-06T18:13:14.459Z,73.20
2023-05-06T18:15:47.025Z,72.86
2023-05-06T18:18:19.335Z,72.86
2023-05-06T18:20:52.019Z,72.67
2023-05-06T18:23:24.675Z,73.32
2023-05-06T18:25:57.302Z,73.38
2023-05-06T18:28:29.983Z,73.42
2023-05-06T18:31:02.498Z,73.76
2023-05-06T18:33:35.620Z,73.76
2023-05-06T18:36:10.102Z,73.52
2023-05-06T18:38:42.567Z,73.83
2023-05-06T18:41:15.065Z,73.96
2023-05-06T18:43:47.128Z,73.79
2023-05-06T18:46:19.598Z,74.27
2023-05-06T18:48:51.833Z,74.85
2023-05-06T18:51:24.515Z,74.60
2023-05-06T18:53:56.818Z,74.44
2023-05-06T18:56:29.374Z,74.06
2023-05-06T18:59:02.184Z,73.91
2023-05-06T19:01:34.850Z,73.89
2023-05-06T19:04:07.494Z,73.93
2023-05-06T19:06:39.938Z,73.66
2023-05-06T19:09:12.358Z,73.72
2023-05-06T19:11:44.690Z,73.35
2023-05-06T19:14:17.262Z,73.63
2023-05-06T19:16:49.862Z,73.45
2023-05-06T19:19:22.212Z,73.60
2023-05-06T19:21:54.789Z,73.19
2023-05-06T19:24:27.143Z,73.05
2023-05-06T19:26:59.713Z,73.42
2023-05-06T19:29:32.904Z,73.46
2023-05-06T19:32:05.725Z,73.44
2023-05-06T19:34:37.992Z,73.80
2023-05-06T19:37:10.797Z,73.67
2023-05-06T19:39:42.999Z,73.78
2023-05-06T19:42:15.938Z,73.30
2023-05-06T19:44:50.310Z,73.58
2023-05-06T19:47:22.535Z,73.25
2023-05-06T19:49:54.932Z,73.29
2023-05-06T19:52:30.606Z,73.43
2023-05-06T19:55:03.456Z,73.58
2023-05-06T19:57:37.462Z,73.55
2023-05-06T20:00:14.008Z,73.75
2023-05-06T20:02:46.609Z,73.41
2023-05-06T20:05:19.271Z,73.67
2023-05-06T20:07:51.982Z,73.48
2023-05-06T20:10:24.655Z,73.64
2023-05-06T20:12:58.055Z,73.46
2023-05-06T20:15:31.086Z,73.36
2023-05-06T20:18:03.617Z,73.51
2023-05-06T20:20:36.118Z,73.49
2023-05-06T20:23:08.905Z,73.35
2023-05-06T20:25:41.166Z,73.38
2023-05-06T20:28:13.419Z,73.61
2023-05-06T20:30:45.838Z,73.58
2023-05-06T20:33:18.311Z,73.52
2023-05-06T20:35:51.045Z,73.49
2023-05-06T20:38:23.450Z,73.51
2023-05-06T20:40:55.802Z,73.59
2023-05-06T20:43:28.121Z,73.55
2023-05-06T20:46:00.463Z,73.23
2023-05-06T20:48:32.808Z,73.39
2023-05-06T20:51:05.347Z,73.26
2023-05-06T20:53:38.758Z,73.33
2023-05-06T20:56:20.644Z,73.32
2023-05-06T20:58:53.703Z,73.20
2023-05-06T21:01:27.667Z,73.06
2023-05-06T21:04:01.519Z,73.20
2023-05-06T21:06:33.814Z,73.25
2023-05-06T21:09:06.876Z,73.38
2023-05-06T21:11:39.321Z,73.20
2023-05-06T21:14:11.417Z,73.18
2023-05-06T21:16:43.816Z,73.22
2023-05-06T21:19:16.155Z,73.25
2023-05-06T21:21:48.647Z,73.21
2023-05-06T21:24:20.896Z,73.01
2023-05-06T21:26:53.780Z,73.32
2023-05-06T21:29:26.139Z,73.23
2023-05-06T21:31:58.753Z,73.25
2023-05-06T21:34:31.434Z,72.92
2023-05-06T21:37:03.657Z,73.09
2023-05-06T21:39:36.036Z,73.27
2023-05-06T21:42:08.702Z,73.08
2023-05-06T21:44:40.848Z,73.28
2023-05-06T21:47:13.162Z,73.22
2023-05-06T21:49:45.241Z,72.91
2023-05-06T21:52:17.351Z,73.25
2023-05-06T21:54:49.917Z,73.21
2023-05-06T21:57:22.233Z,73.14
2023-05-06T21:59:54.717Z,73.13
2023-05-06T22:02:27.443Z,72.89
2023-05-06T22:04:59.915Z,73.00
2023-05-06T22:07:32.420Z,72.86
2023-05-06T22:10:04.810Z,72.75
2023-05-06T22:12:37.908Z,72.82
2023-05-06T22:15:13.955Z,72.82
2023-05-06T22:17:46.397Z,72.91
2023-05-06T22:20:21.432Z,72.77
2023-05-06T22:22:54.748Z,72.57
2023-05-06T22:25:27.252Z,72.42
2023-05-06T22:28:01.508Z,72.15
2023-05-06T22:30:34.812Z,72.11
2023-05-06T22:33:07.422Z,72.31
2023-05-06T22:35:39.985Z,72.46
2023-05-06T22:38:13.082Z,72.07
2023-05-06T22:40:45.539Z,72.51
2023-05-06T22:43:17.861Z,72.50
2023-05-06T22:45:49.975Z,72.29
2023-05-06T22:48:22.548Z,72.20
2023-05-06T22:50:56.405Z,72.27
2023-05-06T22:53:27.845Z,71.94
2023-05-06T22:56:02.966Z,71.93
2023-05-06T22:58:35.712Z,72.05
2023-05-06T23:01:08.891Z,71.86
2023-05-06T23:03:41.555Z,71.69
2023-05-06T23:06:14.378Z,71.79
2023-05-06T23:08:47.009Z,71.55
2023-05-06T23:11:19.403Z,71.53
2023-05-06T23:13:51.777Z,71.64
2023-05-06T23:16:24.047Z,71.81
2023-05-06T23:18:56.139Z,71.58
2023-05-06T23:21:28.801Z,71.42
2023-05-06T23:24:02.435Z,71.55
2023-05-06T23:26:34.947Z,71.58
2023-05-06T23:29:06.993Z,71.28
2023-05-06T23:31:39.362Z,71.54
2023-05-06T23:34:12.549Z,71.66
2023-05-06T23:36:46.777Z,71.54
2023-05-06T23:39:19.072Z,71.15
2023-05-06T23:41:51.467Z,71.19
2023-05-06T23:44:24.090Z,71.06
2023-05-06T23:46:56.454Z,71.10
2023-05-06T23:49:31.508Z,71.29
2023-05-06T23:52:04.735Z,71.09
2023-05-06T23:54:37.145Z,71.04
2023-05-06T23:57:09.442Z,71.10
2023-05-06T23:59:41.769Z,70.58
